sensor_id;sensor_type;location;lat;lon;timestamp;P1;durP1;ratioP1;P2;durP2;ratioP2
1613;SDS011;800;48.824;9.346;2024-02-26T00:01:00;3.07;;;2.10;;
1613;SDS011;800;48.824;9.346;2024-02-26T00:03:26;2.73;;;2.20;;
1613;SDS011;800;48.824;9.346;2024-02-26T00:05:52;2.73;;;2.10;;
1613;SDS011;800;48.824;9.346;2024-02-26T00:08:18;2.23;;;1.80;;
1613;SDS011;800;48.824;9.346;2024-02-26T00:10:43;4.80;;;2.20;;
1613;SDS011;800;48.824;9.346;2024-02-26T00:13:09;2.70;;;1.77;;
1613;SDS011;800;48.824;9.346;2024-02-26T00:15:34;2.00;;;1.90;;
1613;SDS011;800;48.824;9.346;2024-02-26T00:18:00;3.07;;;2.23;;
1613;SDS011;800;48.824;9.346;2024-02-26T00:20:26;2.90;;;2.00;;
1613;SDS011;800;48.824;9.346;2024-02-26T00:22:51;2.97;;;2.13;;
1613;SDS011;800;48.824;9.346;2024-02-26T00:25:17;2.43;;;1.93;;
1613;SDS011;800;48.824;9.346;2024-02-26T00:27:43;1.80;;;1.70;;
1613;SDS011;800;48.824;9.346;2024-02-26T00:30:09;2.50;;;1.80;;
1613;SDS011;800;48.824;9.346;2024-02-26T00:32:35;2.30;;;2.10;;
1613;SDS011;800;48.824;9.346;2024-02-26T00:35:00;1.73;;;1.63;;
1613;SDS011;800;48.824;9.346;2024-02-26T00:37:26;2.17;;;1.97;;
1613;SDS011;800;48.824;9.346;2024-02-26T00:39:52;1.60;;;1.50;;
1613;SDS011;800;48.824;9.346;2024-02-26T00:42:19;2.63;;;1.73;;
1613;SDS011;800;48.824;9.346;2024-02-26T00:44:44;2.17;;;1.97;;
1613;SDS011;800;48.824;9.346;2024-02-26T00:47:10;2.87;;;1.70;;
1613;SDS011;800;48.824;9.346;2024-02-26T00:49:36;2.07;;;1.87;;
1613;SDS011;800;48.824;9.346;2024-02-26T00:52:02;2.40;;;1.87;;
1613;SDS011;800;48.824;9.346;2024-02-26T00:54:28;3.00;;;2.03;;
1613;SDS011;800;48.824;9.346;2024-02-26T00:56:53;1.60;;;1.50;;
1613;SDS011;800;48.824;9.346;2024-02-26T00:59:19;2.17;;;1.63;;
1613;SDS011;800;48.824;9.346;2024-02-26T01:01:44;1.97;;;1.87;;
1613;SDS011;800;48.824;9.346;2024-02-26T01:04:10;1.87;;;1.73;;
1613;SDS011;800;48.824;9.346;2024-02-26T01:06:36;2.77;;;2.10;;
1613;SDS011;800;48.824;9.346;2024-02-26T01:09:02;1.90;;;1.60;;
1613;SDS011;800;48.824;9.346;2024-02-26T01:11:28;1.90;;;1.73;;
1613;SDS011;800;48.824;9.346;2024-02-26T01:13:54;1.80;;;1.70;;
1613;SDS011;800;48.824;9.346;2024-02-26T01:16:21;2.63;;;2.43;;
1613;SDS011;800;48.824;9.346;2024-02-26T01:18:48;2.80;;;2.10;;
1613;SDS011;800;48.824;9.346;2024-02-26T01:21:13;1.63;;;1.53;;
1613;SDS011;800;48.824;9.346;2024-02-26T01:23:39;1.53;;;1.43;;
1613;SDS011;800;48.824;9.346;2024-02-26T01:26:05;2.67;;;1.80;;
1613;SDS011;800;48.824;9.346;2024-02-26T01:28:30;2.10;;;1.80;;
1613;SDS011;800;48.824;9.346;2024-02-26T01:30:56;2.10;;;1.87;;
1613;SDS011;800;48.824;9.346;2024-02-26T01:33:21;1.93;;;1.73;;
1613;SDS011;800;48.824;9.346;2024-02-26T01:35:47;1.73;;;1.63;;
1613;SDS011;800;48.824;9.346;2024-02-26T01:38:13;4.80;;;1.90;;
1613;SDS011;800;48.824;9.346;2024-02-26T01:40:38;2.37;;;2.17;;
1613;SDS011;800;48.824;9.346;2024-02-26T01:43:04;1.70;;;1.60;;
1613;SDS011;800;48.824;9.346;2024-02-26T01:45:29;3.87;;;1.70;;
1613;SDS011;800;48.824;9.346;2024-02-26T01:47:55;2.23;;;2.03;;
1613;SDS011;800;48.824;9.346;2024-02-26T01:50:21;1.53;;;1.43;;
1613;SDS011;800;48.824;9.346;2024-02-26T01:52:49;2.13;;;1.93;;
1613;SDS011;800;48.824;9.346;2024-02-26T01:55:16;1.60;;;1.50;;
1613;SDS011;800;48.824;9.346;2024-02-26T01:57:43;2.17;;;2.00;;
1613;SDS011;800;48.824;9.346;2024-02-26T02:00:11;3.00;;;2.20;;
1613;SDS011;800;48.824;9.346;2024-02-26T02:02:39;1.87;;;1.57;;
1613;SDS011;800;48.824;9.346;2024-02-26T02:05:06;1.80;;;1.70;;
1613;SDS011;800;48.824;9.346;2024-02-26T02:07:34;1.80;;;1.70;;
1613;SDS011;800;48.824;9.346;2024-02-26T02:10:01;2.90;;;1.90;;
1613;SDS011;800;48.824;9.346;2024-02-26T02:12:27;1.60;;;1.40;;
1613;SDS011;800;48.824;9.346;2024-02-26T02:14:53;1.90;;;1.80;;
1613;SDS011;800;48.824;9.346;2024-02-26T02:17:19;3.60;;;2.03;;
1613;SDS011;800;48.824;9.346;2024-02-26T02:19:45;1.70;;;1.60;;
1613;SDS011;800;48.824;9.346;2024-02-26T02:22:10;1.97;;;1.87;;
1613;SDS011;800;48.824;9.346;2024-02-26T02:24:36;2.33;;;2.13;;
1613;SDS011;800;48.824;9.346;2024-02-26T02:27:02;2.57;;;2.10;;
1613;SDS011;800;48.824;9.346;2024-02-26T02:29:28;3.00;;;1.80;;
1613;SDS011;800;48.824;9.346;2024-02-26T02:31:53;3.50;;;2.30;;
1613;SDS011;800;48.824;9.346;2024-02-26T02:51:10;2.70;;;2.00;;
1613;SDS011;800;48.824;9.346;2024-02-26T02:53:36;1.50;;;1.40;;
1613;SDS011;800;48.824;9.346;2024-02-26T02:56:01;2.17;;;1.97;;
1613;SDS011;800;48.824;9.346;2024-02-26T02:58:27;2.50;;;2.30;;
1613;SDS011;800;48.824;9.346;2024-02-26T03:00:52;2.20;;;2.00;;
1613;SDS011;800;48.824;9.346;2024-02-26T03:03:20;2.27;;;1.90;;
1613;SDS011;800;48.824;9.346;2024-02-26T03:05:45;1.30;;;1.20;;
1613;SDS011;800;48.824;9.346;2024-02-26T03:08:11;2.00;;;1.50;;
1613;SDS011;800;48.824;9.346;2024-02-26T03:10:36;1.60;;;1.50;;
1613;SDS011;800;48.824;9.346;2024-02-26T03:13:02;1.57;;;1.47;;
1613;SDS011;800;48.824;9.346;2024-02-26T03:15:28;1.60;;;1.50;;
1613;SDS011;800;48.824;9.346;2024-02-26T03:17:53;1.90;;;1.80;;
1613;SDS011;800;48.824;9.346;2024-02-26T03:20:19;2.20;;;1.77;;
1613;SDS011;800;48.824;9.346;2024-02-26T03:22:44;1.73;;;1.63;;
1613;SDS011;800;48.824;9.346;2024-02-26T03:25:10;3.30;;;2.00;;
1613;SDS011;800;48.824;9.346;2024-02-26T03:27:36;3.73;;;2.23;;
1613;SDS011;800;48.824;9.346;2024-02-26T03:30:02;4.30;;;1.90;;
1613;SDS011;800;48.824;9.346;2024-02-26T03:32:28;2.00;;;1.90;;
1613;SDS011;800;48.824;9.346;2024-02-26T03:34:54;2.17;;;1.70;;
1613;SDS011;800;48.824;9.346;2024-02-26T03:37:20;1.70;;;1.60;;
1613;SDS011;800;48.824;9.346;2024-02-26T03:39:46;1.80;;;1.70;;
1613;SDS011;800;48.824;9.346;2024-02-26T03:42:12;1.73;;;1.63;;
1613;SDS011;800;48.824;9.346;2024-02-26T03:44:37;2.00;;;1.90;;
1613;SDS011;800;48.824;9.346;2024-02-26T03:47:03;1.83;;;1.60;;
1613;SDS011;800;48.824;9.346;2024-02-26T03:49:28;2.13;;;2.00;;
1613;SDS011;800;48.824;9.346;2024-02-26T03:51:54;2.10;;;2.00;;
1613;SDS011;800;48.824;9.346;2024-02-26T03:54:19;1.83;;;1.60;;
1613;SDS011;800;48.824;9.346;2024-02-26T03:56:45;2.20;;;2.00;;
1613;SDS011;800;48.824;9.346;2024-02-26T03:59:10;2.50;;;2.30;;
1613;SDS011;800;48.824;9.346;2024-02-26T04:01:36;2.17;;;1.60;;
1613;SDS011;800;48.824;9.346;2024-02-26T04:04:01;1.60;;;1.50;;
1613;SDS011;800;48.824;9.346;2024-02-26T04:06:30;2.00;;;1.40;;
1613;SDS011;800;48.824;9.346;2024-02-26T04:08:55;2.10;;;2.00;;
1613;SDS011;800;48.824;9.346;2024-02-26T04:11:21;3.10;;;1.70;;
1613;SDS011;800;48.824;9.346;2024-02-26T04:13:47;1.90;;;1.80;;
1613;SDS011;800;48.824;9.346;2024-02-26T04:16:14;2.23;;;1.73;;
1613;SDS011;800;48.824;9.346;2024-02-26T04:18:41;2.73;;;2.53;;
1613;SDS011;800;48.824;9.346;2024-02-26T04:21:07;1.93;;;1.83;;
1613;SDS011;800;48.824;9.346;2024-02-26T04:23:32;2.03;;;1.93;;
1613;SDS011;800;48.824;9.346;2024-02-26T04:25:58;2.13;;;2.00;;
1613;SDS011;800;48.824;9.346;2024-02-26T04:28:24;2.20;;;2.00;;
1613;SDS011;800;48.824;9.346;2024-02-26T04:30:51;2.57;;;2.37;;
1613;SDS011;800;48.824;9.346;2024-02-26T04:33:16;2.17;;;2.00;;
1613;SDS011;800;48.824;9.346;2024-02-26T04:35:42;1.97;;;1.87;;
1613;SDS011;800;48.824;9.346;2024-02-26T04:38:07;2.27;;;2.07;;
1613;SDS011;800;48.824;9.346;2024-02-26T04:40:33;2.03;;;1.90;;
1613;SDS011;800;48.824;9.346;2024-02-26T04:42:59;2.23;;;1.90;;
1613;SDS011;800;48.824;9.346;2024-02-26T04:45:24;5.23;;;2.63;;
1613;SDS011;800;48.824;9.346;2024-02-26T04:47:50;2.10;;;2.00;;
1613;SDS011;800;48.824;9.346;2024-02-26T04:50:15;2.80;;;2.40;;
1613;SDS011;800;48.824;9.346;2024-02-26T04:52:41;2.60;;;2.30;;
1613;SDS011;800;48.824;9.346;2024-02-26T04:55:07;4.07;;;2.60;;
1613;SDS011;800;48.824;9.346;2024-02-26T04:57:33;2.07;;;1.90;;
1613;SDS011;800;48.824;9.346;2024-02-26T04:59:58;2.50;;;2.20;;
1613;SDS011;800;48.824;9.346;2024-02-26T05:02:24;2.57;;;2.37;;
1613;SDS011;800;48.824;9.346;2024-02-26T05:04:49;2.60;;;2.40;;
1613;SDS011;800;48.824;9.346;2024-02-26T05:07:15;2.80;;;2.00;;
1613;SDS011;800;48.824;9.346;2024-02-26T05:09:42;1.80;;;1.70;;
1613;SDS011;800;48.824;9.346;2024-02-26T05:12:08;2.63;;;2.20;;
1613;SDS011;800;48.824;9.346;2024-02-26T05:14:34;2.73;;;2.27;;
1613;SDS011;800;48.824;9.346;2024-02-26T05:17:00;2.20;;;2.00;;
1613;SDS011;800;48.824;9.346;2024-02-26T05:19:25;1.90;;;1.80;;
1613;SDS011;800;48.824;9.346;2024-02-26T05:21:51;2.67;;;2.07;;
1613;SDS011;800;48.824;9.346;2024-02-26T05:24:17;1.97;;;1.80;;
1613;SDS011;800;48.824;9.346;2024-02-26T05:26:43;2.07;;;1.80;;
1613;SDS011;800;48.824;9.346;2024-02-26T05:29:10;1.90;;;1.80;;
1613;SDS011;800;48.824;9.346;2024-02-26T05:31:35;2.20;;;2.00;;
1613;SDS011;800;48.824;9.346;2024-02-26T05:34:01;2.93;;;1.97;;
1613;SDS011;800;48.824;9.346;2024-02-26T05:36:26;2.70;;;1.67;;
1613;SDS011;800;48.824;9.346;2024-02-26T05:38:53;2.90;;;2.10;;
1613;SDS011;800;48.824;9.346;2024-02-26T05:41:19;2.47;;;1.90;;
1613;SDS011;800;48.824;9.346;2024-02-26T05:43:48;1.97;;;1.77;;
1613;SDS011;800;48.824;9.346;2024-02-26T05:46:16;2.90;;;2.17;;
1613;SDS011;800;48.824;9.346;2024-02-26T05:48:46;1.87;;;1.77;;
1613;SDS011;800;48.824;9.346;2024-02-26T05:51:16;2.20;;;2.00;;
1613;SDS011;800;48.824;9.346;2024-02-26T05:53:41;3.10;;;2.20;;
1613;SDS011;800;48.824;9.346;2024-02-26T05:56:07;2.40;;;1.80;;
1613;SDS011;800;48.824;9.346;2024-02-26T05:58:32;2.40;;;2.20;;
1613;SDS011;800;48.824;9.346;2024-02-26T06:00:58;2.10;;;2.00;;
1613;SDS011;800;48.824;9.346;2024-02-26T06:03:25;3.63;;;2.27;;
1613;SDS011;800;48.824;9.346;2024-02-26T06:05:50;2.80;;;2.20;;
1613;SDS011;800;48.824;9.346;2024-02-26T06:08:16;2.83;;;2.50;;
1613;SDS011;800;48.824;9.346;2024-02-26T06:10:41;2.10;;;1.90;;
1613;SDS011;800;48.824;9.346;2024-02-26T06:13:07;2.57;;;2.33;;
1613;SDS011;800;48.824;9.346;2024-02-26T06:15:33;3.70;;;2.10;;
1613;SDS011;800;48.824;9.346;2024-02-26T06:17:58;6.00;;;1.77;;
1613;SDS011;800;48.824;9.346;2024-02-26T06:20:24;4.60;;;2.40;;
1613;SDS011;800;48.824;9.346;2024-02-26T06:22:50;3.40;;;2.20;;
1613;SDS011;800;48.824;9.346;2024-02-26T06:25:16;2.30;;;2.10;;
1613;SDS011;800;48.824;9.346;2024-02-26T06:27:41;2.10;;;1.90;;
1613;SDS011;800;48.824;9.346;2024-02-26T06:30:07;3.57;;;2.17;;
1613;SDS011;800;48.824;9.346;2024-02-26T06:32:35;2.17;;;1.97;;
1613;SDS011;800;48.824;9.346;2024-02-26T06:35:01;2.30;;;2.10;;
1613;SDS011;800;48.824;9.346;2024-02-26T06:37:31;2.60;;;2.40;;
1613;SDS011;800;48.824;9.346;2024-02-26T06:39:58;3.27;;;2.30;;
1613;SDS011;800;48.824;9.346;2024-02-26T06:42:24;2.17;;;2.00;;
1613;SDS011;800;48.824;9.346;2024-02-26T06:44:49;2.50;;;2.27;;
1613;SDS011;800;48.824;9.346;2024-02-26T06:47:15;2.10;;;1.90;;
1613;SDS011;800;48.824;9.346;2024-02-26T06:49:40;2.20;;;1.80;;
1613;SDS011;800;48.824;9.346;2024-02-26T06:52:06;2.77;;;2.57;;
1613;SDS011;800;48.824;9.346;2024-02-26T06:54:32;2.73;;;2.50;;
1613;SDS011;800;48.824;9.346;2024-02-26T06:56:57;4.10;;;2.33;;
1613;SDS011;800;48.824;9.346;2024-02-26T06:59:23;3.03;;;2.37;;
1613;SDS011;800;48.824;9.346;2024-02-26T07:01:49;2.83;;;2.53;;
1613;SDS011;800;48.824;9.346;2024-02-26T07:04:14;2.53;;;2.33;;
1613;SDS011;800;48.824;9.346;2024-02-26T07:06:40;7.67;;;6.10;;
1613;SDS011;800;48.824;9.346;2024-02-26T07:09:06;6.20;;;5.07;;
1613;SDS011;800;48.824;9.346;2024-02-26T07:11:32;4.40;;;4.00;;
1613;SDS011;800;48.824;9.346;2024-02-26T07:13:57;6.50;;;4.80;;
1613;SDS011;800;48.824;9.346;2024-02-26T07:16:23;5.10;;;3.77;;
1613;SDS011;800;48.824;9.346;2024-02-26T07:18:49;4.17;;;3.00;;
1613;SDS011;800;48.824;9.346;2024-02-26T07:21:14;5.30;;;2.80;;
1613;SDS011;800;48.824;9.346;2024-02-26T07:23:40;3.97;;;3.43;;
1613;SDS011;800;48.824;9.346;2024-02-26T07:26:06;4.20;;;2.97;;
1613;SDS011;800;48.824;9.346;2024-02-26T07:28:33;4.27;;;2.90;;
1613;SDS011;800;48.824;9.346;2024-02-26T07:30:59;4.80;;;2.87;;
1613;SDS011;800;48.824;9.346;2024-02-26T07:33:24;4.17;;;2.97;;
1613;SDS011;800;48.824;9.346;2024-02-26T07:35:50;5.33;;;2.93;;
1613;SDS011;800;48.824;9.346;2024-02-26T07:38:15;4.10;;;3.70;;
1613;SDS011;800;48.824;9.346;2024-02-26T07:40:41;3.77;;;3.13;;
1613;SDS011;800;48.824;9.346;2024-02-26T07:43:06;3.00;;;2.70;;
1613;SDS011;800;48.824;9.346;2024-02-26T07:45:32;4.67;;;3.10;;
1613;SDS011;800;48.824;9.346;2024-02-26T07:47:58;3.83;;;2.63;;
1613;SDS011;800;48.824;9.346;2024-02-26T07:50:23;4.10;;;2.67;;
1613;SDS011;800;48.824;9.346;2024-02-26T07:52:49;4.33;;;2.93;;
1613;SDS011;800;48.824;9.346;2024-02-26T07:55:16;4.63;;;2.93;;
1613;SDS011;800;48.824;9.346;2024-02-26T07:57:42;3.30;;;3.00;;
1613;SDS011;800;48.824;9.346;2024-02-26T08:00:10;2.70;;;2.50;;
1613;SDS011;800;48.824;9.346;2024-02-26T08:02:36;8.50;;;3.23;;
1613;SDS011;800;48.824;9.346;2024-02-26T08:05:01;3.87;;;2.77;;
1613;SDS011;800;48.824;9.346;2024-02-26T08:07:27;3.23;;;2.53;;
1613;SDS011;800;48.824;9.346;2024-02-26T08:09:53;7.23;;;3.97;;
1613;SDS011;800;48.824;9.346;2024-02-26T08:12:19;4.53;;;3.50;;
1613;SDS011;800;48.824;9.346;2024-02-26T08:14:44;9.60;;;3.60;;
1613;SDS011;800;48.824;9.346;2024-02-26T08:17:10;3.30;;;2.80;;
1613;SDS011;800;48.824;9.346;2024-02-26T08:19:35;4.37;;;3.20;;
1613;SDS011;800;48.824;9.346;2024-02-26T08:22:01;3.43;;;3.13;;
1613;SDS011;800;48.824;9.346;2024-02-26T08:24:27;3.17;;;2.90;;
1613;SDS011;800;48.824;9.346;2024-02-26T08:26:53;5.00;;;3.03;;
1613;SDS011;800;48.824;9.346;2024-02-26T08:29:19;2.60;;;2.40;;
1613;SDS011;800;48.824;9.346;2024-02-26T08:31:44;4.67;;;3.33;;
1613;SDS011;800;48.824;9.346;2024-02-26T08:34:10;5.90;;;3.50;;
1613;SDS011;800;48.824;9.346;2024-02-26T08:36:35;3.33;;;2.70;;
1613;SDS011;800;48.824;9.346;2024-02-26T08:39:01;3.47;;;2.60;;
1613;SDS011;800;48.824;9.346;2024-02-26T08:41:27;3.17;;;2.80;;
1613;SDS011;800;48.824;9.346;2024-02-26T08:43:52;2.60;;;2.40;;
1613;SDS011;800;48.824;9.346;2024-02-26T08:46:18;2.90;;;2.70;;
1613;SDS011;800;48.824;9.346;2024-02-26T08:48:43;3.10;;;2.53;;
1613;SDS011;800;48.824;9.346;2024-02-26T08:51:09;3.67;;;2.83;;
1613;SDS011;800;48.824;9.346;2024-02-26T08:53:35;3.40;;;2.90;;
1613;SDS011;800;48.824;9.346;2024-02-26T08:56:01;3.17;;;2.87;;
1613;SDS011;800;48.824;9.346;2024-02-26T08:58:29;5.30;;;4.00;;
1613;SDS011;800;48.824;9.346;2024-02-26T09:00:55;7.70;;;5.10;;
1613;SDS011;800;48.824;9.346;2024-02-26T09:03:21;4.17;;;3.20;;
1613;SDS011;800;48.824;9.346;2024-02-26T09:05:47;3.83;;;2.93;;
1613;SDS011;800;48.824;9.346;2024-02-26T09:08:13;3.37;;;2.80;;
1613;SDS011;800;48.824;9.346;2024-02-26T09:10:38;9.53;;;2.70;;
1613;SDS011;800;48.824;9.346;2024-02-26T09:13:04;3.13;;;2.83;;
1613;SDS011;800;48.824;9.346;2024-02-26T09:15:30;4.70;;;3.07;;
1613;SDS011;800;48.824;9.346;2024-02-26T09:17:55;3.30;;;3.00;;
1613;SDS011;800;48.824;9.346;2024-02-26T09:20:21;4.60;;;3.17;;
1613;SDS011;800;48.824;9.346;2024-02-26T09:22:48;3.70;;;3.30;;
1613;SDS011;800;48.824;9.346;2024-02-26T09:25:14;4.90;;;4.30;;
1613;SDS011;800;48.824;9.346;2024-02-26T09:27:43;3.60;;;3.30;;
1613;SDS011;800;48.824;9.346;2024-02-26T09:30:12;3.60;;;3.30;;
1613;SDS011;800;48.824;9.346;2024-02-26T09:32:38;4.13;;;3.20;;
1613;SDS011;800;48.824;9.346;2024-02-26T09:35:07;5.03;;;3.37;;
1613;SDS011;800;48.824;9.346;2024-02-26T09:37:33;4.97;;;3.83;;
1613;SDS011;800;48.824;9.346;2024-02-26T09:40:01;3.40;;;3.10;;
1613;SDS011;800;48.824;9.346;2024-02-26T09:42:28;3.43;;;3.13;;
1613;SDS011;800;48.824;9.346;2024-02-26T09:44:58;4.20;;;2.97;;
1613;SDS011;800;48.824;9.346;2024-02-26T09:47:28;3.70;;;3.40;;
1613;SDS011;800;48.824;9.346;2024-02-26T09:49:57;3.83;;;2.80;;
1613;SDS011;800;48.824;9.346;2024-02-26T09:52:25;2.90;;;2.67;;
1613;SDS011;800;48.824;9.346;2024-02-26T09:54:53;4.07;;;3.03;;
1613;SDS011;800;48.824;9.346;2024-02-26T09:57:18;16.00;;;9.33;;
1613;SDS011;800;48.824;9.346;2024-02-26T09:59:44;5.30;;;3.77;;
1613;SDS011;800;48.824;9.346;2024-02-26T10:02:13;3.47;;;2.80;;
1613;SDS011;800;48.824;9.346;2024-02-26T10:04:39;3.20;;;2.60;;
1613;SDS011;800;48.824;9.346;2024-02-26T10:07:09;3.23;;;2.60;;
1613;SDS011;800;48.824;9.346;2024-02-26T10:09:39;3.83;;;2.73;;
1613;SDS011;800;48.824;9.346;2024-02-26T10:12:05;2.60;;;2.30;;
1613;SDS011;800;48.824;9.346;2024-02-26T10:14:33;3.17;;;2.80;;
1613;SDS011;800;48.824;9.346;2024-02-26T10:16:59;2.80;;;2.40;;
1613;SDS011;800;48.824;9.346;2024-02-26T10:19:28;2.37;;;2.10;;
1613;SDS011;800;48.824;9.346;2024-02-26T10:21:58;3.17;;;2.87;;
1613;SDS011;800;48.824;9.346;2024-02-26T10:24:28;4.80;;;3.53;;
1613;SDS011;800;48.824;9.346;2024-02-26T10:26:54;4.40;;;3.70;;
1613;SDS011;800;48.824;9.346;2024-02-26T10:29:21;6.40;;;4.90;;
1613;SDS011;800;48.824;9.346;2024-02-26T10:31:50;3.60;;;3.30;;
1613;SDS011;800;48.824;9.346;2024-02-26T10:34:16;3.07;;;2.60;;
1613;SDS011;800;48.824;9.346;2024-02-26T10:36:42;2.70;;;2.50;;
1613;SDS011;800;48.824;9.346;2024-02-26T10:39:08;3.30;;;3.00;;
1613;SDS011;800;48.824;9.346;2024-02-26T10:41:36;5.40;;;2.47;;
1613;SDS011;800;48.824;9.346;2024-02-26T10:44:01;2.83;;;2.53;;
1613;SDS011;800;48.824;9.346;2024-02-26T10:46:28;2.90;;;2.70;;
1613;SDS011;800;48.824;9.346;2024-02-26T10:48:53;2.20;;;2.10;;
1613;SDS011;800;48.824;9.346;2024-02-26T10:51:29;3.13;;;2.53;;
1613;SDS011;800;48.824;9.346;2024-02-26T10:53:58;2.60;;;2.40;;
1613;SDS011;800;48.824;9.346;2024-02-26T10:56:29;2.47;;;2.20;;
1613;SDS011;800;48.824;9.346;2024-02-26T10:58:58;4.10;;;2.57;;
1613;SDS011;800;48.824;9.346;2024-02-26T11:01:24;3.20;;;1.83;;
1613;SDS011;800;48.824;9.346;2024-02-26T11:03:52;4.13;;;2.57;;
1613;SDS011;800;48.824;9.346;2024-02-26T11:06:18;2.60;;;2.40;;
1613;SDS011;800;48.824;9.346;2024-02-26T11:08:49;2.37;;;2.10;;
1613;SDS011;800;48.824;9.346;2024-02-26T11:11:15;2.57;;;2.37;;
1613;SDS011;800;48.824;9.346;2024-02-26T11:13:42;2.40;;;2.20;;
1613;SDS011;800;48.824;9.346;2024-02-26T11:16:14;2.93;;;2.27;;
1613;SDS011;800;48.824;9.346;2024-02-26T11:18:41;2.30;;;2.10;;
1613;SDS011;800;48.824;9.346;2024-02-26T11:21:07;2.20;;;2.00;;
1613;SDS011;800;48.824;9.346;2024-02-26T11:23:34;2.30;;;1.93;;
1613;SDS011;800;48.824;9.346;2024-02-26T11:26:02;2.37;;;1.90;;
1613;SDS011;800;48.824;9.346;2024-02-26T11:28:30;1.83;;;1.73;;
1613;SDS011;800;48.824;9.346;2024-02-26T11:30:58;3.00;;;1.90;;
1613;SDS011;800;48.824;9.346;2024-02-26T11:33:25;1.90;;;1.80;;
1613;SDS011;800;48.824;9.346;2024-02-26T11:35:51;2.47;;;2.10;;
1613;SDS011;800;48.824;9.346;2024-02-26T11:38:21;2.90;;;1.90;;
1613;SDS011;800;48.824;9.346;2024-02-26T11:40:49;1.90;;;1.73;;
1613;SDS011;800;48.824;9.346;2024-02-26T11:43:15;1.60;;;1.37;;
1613;SDS011;800;48.824;9.346;2024-02-26T11:48:11;2.53;;;1.93;;
1613;SDS011;800;48.824;9.346;2024-02-26T11:53:19;2.03;;;1.37;;
1613;SDS011;800;48.824;9.346;2024-02-26T11:55:45;1.70;;;1.60;;
1613;SDS011;800;48.824;9.346;2024-02-26T11:58:10;1.63;;;1.53;;
1613;SDS011;800;48.824;9.346;2024-02-26T12:00:36;1.73;;;1.63;;
1613;SDS011;800;48.824;9.346;2024-02-26T12:03:01;1.70;;;1.33;;
1613;SDS011;800;48.824;9.346;2024-02-26T12:05:33;2.30;;;1.40;;
1613;SDS011;800;48.824;9.346;2024-02-26T12:08:04;1.60;;;1.50;;
1613;SDS011;800;48.824;9.346;2024-02-26T12:10:38;2.20;;;1.60;;
1613;SDS011;800;48.824;9.346;2024-02-26T12:13:08;1.83;;;1.63;;
1613;SDS011;800;48.824;9.346;2024-02-26T12:15:38;1.50;;;1.40;;
1613;SDS011;800;48.824;9.346;2024-02-26T12:18:08;2.37;;;1.80;;
1613;SDS011;800;48.824;9.346;2024-02-26T12:20:35;1.73;;;1.40;;
1613;SDS011;800;48.824;9.346;2024-02-26T12:23:04;1.10;;;1.10;;
1613;SDS011;800;48.824;9.346;2024-02-26T12:25:30;1.90;;;1.70;;
1613;SDS011;800;48.824;9.346;2024-02-26T12:27:57;2.73;;;1.80;;
1613;SDS011;800;48.824;9.346;2024-02-26T12:30:24;2.40;;;1.73;;
1613;SDS011;800;48.824;9.346;2024-02-26T12:32:54;1.73;;;1.63;;
1613;SDS011;800;48.824;9.346;2024-02-26T12:35:25;1.70;;;1.50;;
1613;SDS011;800;48.824;9.346;2024-02-26T12:37:52;1.83;;;1.67;;
1613;SDS011;800;48.824;9.346;2024-02-26T12:40:18;1.33;;;1.23;;
1613;SDS011;800;48.824;9.346;2024-02-26T12:42:44;2.00;;;1.80;;
1613;SDS011;800;48.824;9.346;2024-02-26T12:45:11;2.70;;;1.53;;
1613;SDS011;800;48.824;9.346;2024-02-26T12:47:41;1.40;;;1.30;;
1613;SDS011;800;48.824;9.346;2024-02-26T12:50:08;4.80;;;1.40;;
1613;SDS011;800;48.824;9.346;2024-02-26T12:52:35;1.53;;;1.30;;
1613;SDS011;800;48.824;9.346;2024-02-26T12:55:02;1.60;;;1.50;;
1613;SDS011;800;48.824;9.346;2024-02-26T12:57:29;1.67;;;1.57;;
1613;SDS011;800;48.824;9.346;2024-02-26T12:59:57;3.30;;;1.63;;
1613;SDS011;800;48.824;9.346;2024-02-26T13:02:26;1.30;;;1.20;;
1613;SDS011;800;48.824;9.346;2024-02-26T13:04:52;2.43;;;1.37;;
1613;SDS011;800;48.824;9.346;2024-02-26T13:07:20;1.60;;;1.47;;
1613;SDS011;800;48.824;9.346;2024-02-26T13:09:46;1.53;;;1.43;;
1613;SDS011;800;48.824;9.346;2024-02-26T13:12:11;1.80;;;1.70;;
1613;SDS011;800;48.824;9.346;2024-02-26T13:14:38;1.50;;;1.40;;
1613;SDS011;800;48.824;9.346;2024-02-26T13:17:04;1.47;;;1.37;;
1613;SDS011;800;48.824;9.346;2024-02-26T13:19:30;2.20;;;1.73;;
1613;SDS011;800;48.824;9.346;2024-02-26T13:21:56;1.67;;;1.57;;
1613;SDS011;800;48.824;9.346;2024-02-26T13:24:28;2.17;;;1.47;;
1613;SDS011;800;48.824;9.346;2024-02-26T13:26:56;1.47;;;1.37;;
1613;SDS011;800;48.824;9.346;2024-02-26T13:29:21;1.77;;;1.67;;
1613;SDS011;800;48.824;9.346;2024-02-26T13:31:47;1.73;;;1.60;;
1613;SDS011;800;48.824;9.346;2024-02-26T13:34:25;1.60;;;1.50;;
1613;SDS011;800;48.824;9.346;2024-02-26T13:36:51;2.20;;;1.77;;
1613;SDS011;800;48.824;9.346;2024-02-26T13:39:24;1.73;;;1.47;;
1613;SDS011;800;48.824;9.346;2024-02-26T13:41:51;2.90;;;1.63;;
1613;SDS011;800;48.824;9.346;2024-02-26T13:44:18;2.37;;;1.77;;
1613;SDS011;800;48.824;9.346;2024-02-26T13:46:44;1.50;;;1.40;;
1613;SDS011;800;48.824;9.346;2024-02-26T13:49:10;1.97;;;1.67;;
1613;SDS011;800;48.824;9.346;2024-02-26T13:51:36;1.87;;;1.70;;
1613;SDS011;800;48.824;9.346;2024-02-26T13:54:02;1.63;;;1.53;;
1613;SDS011;800;48.824;9.346;2024-02-26T13:56:28;1.60;;;1.50;;
1613;SDS011;800;48.824;9.346;2024-02-26T13:58:54;1.63;;;1.53;;
1613;SDS011;800;48.824;9.346;2024-02-26T14:01:20;2.07;;;1.53;;
1613;SDS011;800;48.824;9.346;2024-02-26T14:03:45;1.60;;;1.50;;
1613;SDS011;800;48.824;9.346;2024-02-26T14:06:11;3.60;;;1.60;;
1613;SDS011;800;48.824;9.346;2024-02-26T14:08:36;1.70;;;1.60;;
1613;SDS011;800;48.824;9.346;2024-02-26T14:11:02;1.63;;;1.40;;
1613;SDS011;800;48.824;9.346;2024-02-26T14:13:28;1.60;;;1.40;;
1613;SDS011;800;48.824;9.346;2024-02-26T14:15:53;1.93;;;1.70;;
1613;SDS011;800;48.824;9.346;2024-02-26T14:18:19;2.20;;;1.50;;
1613;SDS011;800;48.824;9.346;2024-02-26T14:20:44;2.50;;;1.60;;
1613;SDS011;800;48.824;9.346;2024-02-26T14:23:10;1.50;;;1.30;;
1613;SDS011;800;48.824;9.346;2024-02-26T14:25:35;1.80;;;1.70;;
1613;SDS011;800;48.824;9.346;2024-02-26T14:28:01;1.80;;;1.50;;
1613;SDS011;800;48.824;9.346;2024-02-26T14:30:27;2.00;;;1.83;;
1613;SDS011;800;48.824;9.346;2024-02-26T14:32:53;2.13;;;1.33;;
1613;SDS011;800;48.824;9.346;2024-02-26T14:35:19;1.70;;;1.60;;
1613;SDS011;800;48.824;9.346;2024-02-26T14:37:45;2.40;;;1.97;;
1613;SDS011;800;48.824;9.346;2024-02-26T14:40:15;1.70;;;1.60;;
1613;SDS011;800;48.824;9.346;2024-02-26T14:42:41;1.73;;;1.63;;
1613;SDS011;800;48.824;9.346;2024-02-26T14:45:07;1.80;;;1.70;;
1613;SDS011;800;48.824;9.346;2024-02-26T14:47:34;1.57;;;1.43;;
1613;SDS011;800;48.824;9.346;2024-02-26T14:50:00;2.60;;;1.53;;
1613;SDS011;800;48.824;9.346;2024-02-26T14:52:26;1.43;;;1.33;;
1613;SDS011;800;48.824;9.346;2024-02-26T14:54:52;1.67;;;1.20;;
1613;SDS011;800;48.824;9.346;2024-02-26T14:57:18;3.00;;;1.80;;
1613;SDS011;800;48.824;9.346;2024-02-26T14:59:43;1.60;;;1.50;;
1613;SDS011;800;48.824;9.346;2024-02-26T15:02:09;3.33;;;1.50;;
1613;SDS011;800;48.824;9.346;2024-02-26T15:04:38;1.83;;;1.60;;
1613;SDS011;800;48.824;9.346;2024-02-26T15:07:03;1.70;;;1.53;;
1613;SDS011;800;48.824;9.346;2024-02-26T15:09:29;2.00;;;1.60;;
1613;SDS011;800;48.824;9.346;2024-02-26T15:11:55;2.00;;;1.90;;
1613;SDS011;800;48.824;9.346;2024-02-26T15:14:22;2.03;;;1.83;;
1613;SDS011;800;48.824;9.346;2024-02-26T15:16:48;1.70;;;1.60;;
1613;SDS011;800;48.824;9.346;2024-02-26T15:19:13;2.83;;;1.50;;
1613;SDS011;800;48.824;9.346;2024-02-26T15:21:42;1.83;;;1.70;;
1613;SDS011;800;48.824;9.346;2024-02-26T15:24:08;2.67;;;1.63;;
1613;SDS011;800;48.824;9.346;2024-02-26T15:26:36;1.70;;;1.40;;
1613;SDS011;800;48.824;9.346;2024-02-26T15:29:02;2.10;;;1.90;;
1613;SDS011;800;48.824;9.346;2024-02-26T15:31:27;1.87;;;1.77;;
1613;SDS011;800;48.824;9.346;2024-02-26T15:33:53;2.17;;;2.03;;
1613;SDS011;800;48.824;9.346;2024-02-26T15:36:18;3.63;;;1.70;;
1613;SDS011;800;48.824;9.346;2024-02-26T15:38:44;1.60;;;1.50;;
1613;SDS011;800;48.824;9.346;2024-02-26T15:41:12;2.07;;;1.87;;
1613;SDS011;800;48.824;9.346;2024-02-26T15:43:38;2.73;;;2.23;;
1613;SDS011;800;48.824;9.346;2024-02-26T15:46:04;2.10;;;2.00;;